Time;durP1;ratioP1;P1;durP2;ratioP2;P2;SDS_P1;SDS_P2;PMS_P1;PMS_P2;Temp;Humidity;BMP_temperature;BMP_pressure;BME280_temperature;BME280_humidity;BME280_pressure;Samples;Min_cycle;Max_cycle;Signal;HPM_P1;HPM_P2
2022/02/07 00:00:37;;;;;;;22.60;12.95;;;179.50;2252.80;;;;;;5093568;28;20051;-67
2022/02/07 00:05:33;;;;;;;24.38;13.88;;;179.50;2252.80;;;;;;5093785;28;20027;-67
2022/02/07 00:07:59;;;;;;;28.73;15.57;;;179.50;2252.80;;;;;;5094634;28;20376;-67
2022/02/07 00:10:26;;;;;;;24.10;13.32;;;179.60;2252.80;;;;;;5093935;28;20028;-67
2022/02/07 00:12:52;;;;;;;20.08;12.82;;;179.60;2252.80;;;;;;5094530;28;20378;-67
2022/02/07 00:15:19;;;;;;;22.83;13.00;;;179.70;2252.80;;;;;;5093653;28;20025;-67
2022/02/07 00:17:46;;;;;;;24.48;14.43;;;179.70;2252.80;;;;;;5093639;28;20020;-67
2022/02/07 00:20:16;;;;;;;22.60;13.00;;;179.80;2252.80;;;;;;5093566;28;20020;-67
2022/02/07 00:22:42;;;;;;;23.80;13.82;;;179.80;2252.80;;;;;;5093791;28;20036;-66
2022/02/07 00:25:08;;;;;;;21.38;12.00;;;179.80;2252.80;;;;;;5093488;28;20024;-67
2022/02/07 00:27:35;;;;;;;17.75;11.10;;;179.80;2252.80;;;;;;5094201;28;20421;-66
2022/02/07 00:30:03;;;;;;;18.08;10.88;;;179.80;2252.80;;;;;;5093490;28;20048;-67
2022/02/07 00:32:29;;;;;;;22.05;11.32;;;179.90;2252.80;;;;;;5093719;28;20028;-66
2022/02/07 00:34:55;;;;;;;24.17;11.10;;;179.90;2252.80;;;;;;5093463;28;20392;-67
2022/02/07 00:37:24;;;;;;;18.35;9.57;;;179.90;2252.80;;;;;;5093385;28;20028;-67
2022/02/07 00:40:02;;;;;;;18.30;9.70;;;180.00;2252.80;;;;;;5093391;28;20464;-66
2022/02/07 00:42:32;;;;;;;16.42;10.05;;;180.00;2252.80;;;;;;5093604;28;20032;-66
2022/02/07 00:45:13;;;;;;;15.20;9.32;;;180.10;2252.80;;;;;;5093546;28;20020;-68
2022/02/07 00:47:39;;;;;;;15.20;8.55;;;180.10;2252.80;;;;;;5093300;28;20469;-66
2022/02/07 00:50:05;;;;;;;14.98;8.80;;;204.80;2252.80;;;;;;5095188;28;20039;-67
2022/02/07 00:52:31;;;;;;;14.10;8.70;;;204.80;2252.80;;;;;;5097390;28;20024;-67
2022/02/07 00:54:57;;;;;;;13.27;7.80;;;204.80;2252.80;;;;;;5097285;28;20032;-67
2022/02/07 00:57:23;;;;;;;14.32;8.40;;;204.90;2252.80;;;;;;5097259;28;20028;-66
2022/02/07 00:59:49;;;;;;;15.80;8.27;;;204.90;2252.80;;;;;;5095688;28;20474;-67
2022/02/07 01:02:14;;;;;;;12.65;8.40;;;205.00;2227.20;;;;;;5097140;28;20558;-67
2022/02/07 01:04:40;;;;;;;15.35;9.30;;;205.00;2227.20;;;;;;5097406;28;20032;-67
2022/02/07 01:07:08;;;;;;;22.15;12.05;;;205.00;2227.20;;;;;;5097080;28;20063;-66
2022/02/07 01:09:44;;;;;;;17.95;10.70;;;205.10;2227.20;;;;;;5097072;28;20099;-65
2022/02/07 01:15:24;;;;;;;19.45;10.90;;;205.20;2201.60;;;;;;5096932;28;20081;-67
2022/02/07 01:20:49;;;;;;;18.63;11.27;;;205.20;2201.60;;;;;;5096777;28;20016;-67
2022/02/07 01:50:31;;;;;;;17.75;10.93;;;205.20;2201.60;;;;;;5096628;28;20073;-68
2022/02/07 01:57:55;;;;;;;14.63;9.20;;;205.20;2201.60;;;;;;5096393;28;20460;-68
2022/02/07 02:00:22;;;;;;;16.70;10.02;;;205.30;2201.60;;;;;;5095848;28;20051;-67
2022/02/07 02:02:48;;;;;;;14.35;8.98;;;205.20;2201.60;;;;;;5095124;28;20107;-67
2022/02/07 02:05:15;;;;;;;15.88;9.63;;;205.30;2201.60;;;;;;5096262;28;20573;-67
2022/02/07 02:07:41;;;;;;;16.65;10.13;;;205.30;2201.60;;;;;;5095901;28;20545;-66
2022/02/07 02:10:09;;;;;;;16.70;10.05;;;205.30;2176.00;;;;;;5096158;28;20020;-68
2022/02/07 02:12:43;;;;;;;14.68;9.25;;;205.30;2201.60;;;;;;5095922;28;20024;-67
2022/02/07 02:37:17;;;;;;;12.68;7.43;;;205.70;2150.40;;;;;;5095452;28;20012;-67
2022/02/07 02:47:33;;;;;;;11.57;6.50;;;230.50;2099.20;;;;;;5095382;28;20522;-65
2022/02/07 02:50:07;;;;;;;10.35;6.38;;;230.50;2073.60;;;;;;5095069;28;20048;-67
2022/02/07 02:52:33;;;;;;;10.63;5.65;;;230.50;2073.60;;;;;;5095083;28;20028;-66
2022/02/07 02:54:59;;;;;;;9.07;6.47;;;230.50;2073.60;;;;;;5095302;28;20102;-67
2022/02/07 02:57:24;;;;;;;9.30;5.47;;;230.50;2073.60;;;;;;5094980;28;20028;-65
2022/02/07 02:59:50;;;;;;;11.15;6.13;;;230.50;2073.60;;;;;;5093334;28;20056;-67
2022/02/07 03:02:16;;;;;;;11.77;6.15;;;230.50;2073.60;;;;;;5094802;28;20054;-66
2022/02/07 03:04:42;;;;;;;11.45;6.13;;;230.50;2073.60;;;;;;5095347;28;20020;-66
2022/02/07 03:07:08;;;;;;;11.27;6.57;;;230.50;2073.60;;;;;;5094783;28;20370;-67
2022/02/07 03:09:34;;;;;;;12.60;6.22;;;230.50;2073.60;;;;;;5094724;28;20062;-67
2022/02/07 03:11:59;;;;;;;9.73;5.22;;;230.50;2073.60;;;;;;5094624;28;20028;-67
2022/02/07 03:14:36;;;;;;;11.60;5.85;;;230.50;2073.60;;;;;;5094579;28;20102;-67
2022/02/07 03:17:03;;;;;;;9.10;6.07;;;230.50;2073.60;;;;;;5094740;28;20476;-66
2022/02/07 03:19:28;;;;;;;11.43;6.00;;;230.60;2073.60;;;;;;5094571;28;20024;-67
2022/02/07 03:21:54;;;;;;;11.75;6.07;;;230.50;2073.60;;;;;;5094443;28;20035;-67
2022/02/07 03:24:20;;;;;;;11.80;5.70;;;230.50;2073.60;;;;;;5094487;28;20038;-67
2022/02/07 03:26:46;;;;;;;10.18;6.15;;;230.50;2073.60;;;;;;5094681;28;20032;-66
2022/02/07 03:29:14;;;;;;;9.38;5.65;;;230.50;2073.60;;;;;;5094448;28;20050;-66
2022/02/07 03:31:41;;;;;;;8.55;5.13;;;230.50;2073.60;;;;;;5094318;28;20036;-66
2022/02/07 03:34:07;;;;;;;9.65;5.40;;;230.50;2073.60;;;;;;5094554;28;20024;-66
2022/02/07 03:36:33;;;;;;;9.48;4.60;;;230.50;2073.60;;;;;;5094216;28;20039;-67
2022/02/07 03:39:01;;;;;;;10.48;5.38;;;230.50;2073.60;;;;;;5094161;28;20085;-66
2022/02/07 03:41:27;;;;;;;10.20;5.50;;;230.50;2073.60;;;;;;5094090;28;20539;-66
2022/02/07 03:43:53;;;;;;;8.25;4.53;;;230.50;2073.60;;;;;;5094373;28;20483;-67
2022/02/07 03:46:19;;;;;;;9.85;5.13;;;230.60;2073.60;;;;;;5094373;28;20024;-67
2022/02/07 03:48:45;;;;;;;9.95;5.30;;;230.50;2073.60;;;;;;5093998;28;20020;-67
2022/02/07 03:51:11;;;;;;;7.97;4.82;;;230.50;2073.60;;;;;;5093974;28;20048;-66
2022/02/07 03:53:37;;;;;;;9.07;5.28;;;230.60;2073.60;;;;;;5093994;28;20070;-65
2022/02/07 03:56:05;;;;;;;8.02;4.78;;;230.60;2073.60;;;;;;5093904;28;20032;-66
2022/02/07 03:58:31;;;;;;;8.30;4.18;;;230.60;2073.60;;;;;;5093809;28;20024;-67
2022/02/07 04:00:57;;;;;;;9.57;5.50;;;230.70;2073.60;;;;;;5093590;28;20181;-66
2022/02/07 04:03:27;;;;;;;11.40;5.82;;;230.60;2073.60;;;;;;5093814;28;20062;-67
2022/02/07 04:06:00;;;;;;;11.98;5.60;;;230.70;2048.00;;;;;;5094332;28;20020;-67
2022/02/07 04:08:36;;;;;;;11.03;5.73;;;230.70;2073.60;;;;;;5094370;28;20027;-67
2022/02/07 04:11:12;;;;;;;9.05;5.00;;;230.70;2073.60;;;;;;5094807;28;20318;-67
2022/02/07 04:13:40;;;;;;;11.38;5.25;;;230.70;2073.60;;;;;;5093750;28;20024;-66
2022/02/07 04:16:06;;;;;;;7.82;4.18;;;230.70;2048.00;;;;;;5093638;28;20028;-67
2022/02/07 04:18:50;;;;;;;8.18;3.92;;;230.70;2048.00;;;;;;5093751;28;20100;-67
2022/02/07 04:21:16;;;;;;;7.47;3.92;;;230.70;2048.00;;;;;;5093855;28;20461;-67
2022/02/07 04:23:42;;;;;;;8.88;3.80;;;230.70;2048.00;;;;;;5093414;28;20032;-66
2022/02/07 04:26:08;;;;;;;7.38;4.15;;;230.70;2048.00;;;;;;5093125;28;20537;-67
2022/02/07 04:28:34;;;;;;;7.65;3.92;;;230.70;2048.00;;;;;;5093768;28;20039;-61
2022/02/07 04:30:59;;;;;;;7.28;3.78;;;230.70;2048.00;;;;;;5093494;28;20030;-67
2022/02/07 04:33:25;;;;;;;7.35;3.83;;;230.70;2048.00;;;;;;5093489;28;20062;-67
2022/02/07 04:35:51;;;;;;;7.93;3.97;;;230.70;2048.00;;;;;;5093405;28;20077;-67
2022/02/07 04:38:17;;;;;;;8.52;3.80;;;230.70;2073.60;;;;;;5075385;28;20123;-67
2022/02/07 04:40:43;;;;;;;8.57;3.83;;;230.70;2073.60;;;;;;5093331;28;20029;-67
2022/02/07 04:43:12;;;;;;;6.00;3.78;;;230.70;2048.00;;;;;;5093395;28;20030;-67
2022/02/07 04:45:52;;;;;;;6.82;3.83;;;230.70;2048.00;;;;;;5093463;28;20027;-67
2022/02/07 05:01:08;;;;;;;7.00;3.90;;;230.70;2073.60;;;;;;5092988;28;20048;-67
2022/02/07 05:03:40;;;;;;;10.73;4.22;;;230.70;2073.60;;;;;;5093779;28;20020;-67
2022/02/07 05:14:20;;;;;;;10.00;4.90;;;230.80;2073.60;;;;;;5093483;28;20034;-65
2022/02/07 05:16:48;;;;;;;11.25;4.63;;;230.80;2048.00;;;;;;5093418;28;20036;-65
2022/02/07 05:19:14;;;;;;;7.68;4.68;;;230.80;2048.00;;;;;;5093058;28;20025;-66
2022/02/07 05:21:41;;;;;;;8.63;4.68;;;230.80;2048.00;;;;;;5092904;28;20097;-61
2022/02/07 05:24:07;;;;;;;10.55;4.93;;;230.80;2073.60;;;;;;5093336;28;20093;-65
2022/02/07 05:26:33;;;;;;;12.85;6.32;;;230.80;2073.60;;;;;;5092982;28;20036;-65
2022/02/07 05:29:02;;;;;;;11.30;6.93;;;230.80;2073.60;;;;;;5092960;28;20024;-65
2022/02/07 05:31:28;;;;;;;13.85;8.68;;;230.80;2073.60;;;;;;5093537;28;20030;-66
2022/02/07 05:33:53;;;;;;;16.50;10.10;;;230.80;2073.60;;;;;;5093236;28;20404;-65
2022/02/07 05:36:20;;;;;;;19.92;10.27;;;230.80;2073.60;;;;;;5093488;28;20028;-65
2022/02/07 05:38:49;;;;;;;18.95;11.55;;;230.80;2073.60;;;;;;5096537;28;20024;-61
2022/02/07 05:41:16;;;;;;;22.20;11.45;;;230.80;2073.60;;;;;;5096398;28;20032;-65
2022/02/07 05:43:48;;;;;;;22.10;12.15;;;230.70;2073.60;;;;;;5095181;28;20039;-65
2022/02/07 05:46:14;;;;;;;22.10;13.15;;;230.70;2099.20;;;;;;5096359;28;20031;-65
2022/02/07 05:48:40;;;;;;;25.25;14.57;;;230.70;2099.20;;;;;;5096615;28;20391;-61
2022/02/07 05:51:06;;;;;;;25.77;14.52;;;230.70;2099.20;;;;;;5096275;28;20030;-65
2022/02/07 05:53:32;;;;;;;21.50;12.57;;;230.70;2124.80;;;;;;5096232;28;20027;-65
2022/02/07 05:55:58;;;;;;;29.08;16.08;;;230.60;2124.80;;;;;;5096375;28;20024;-67
2022/02/07 05:58:26;;;;;;;24.10;14.20;;;230.60;2124.80;;;;;;5096285;28;20028;-65
2022/02/07 06:00:52;;;;;;;25.55;11.55;;;230.60;2150.40;;;;;;5095868;28;20046;-65
2022/02/07 06:03:18;;;;;;;12.15;7.22;;;230.60;2124.80;;;;;;5096050;28;20103;-61
2022/02/07 06:05:44;;;;;;;8.75;5.00;;;230.60;2124.80;;;;;;5095968;28;20020;-66
2022/02/07 06:08:10;;;;;;;7.72;5.05;;;230.70;2124.80;;;;;;5096016;28;20024;-62
2022/02/07 06:10:36;;;;;;;12.52;5.60;;;230.60;2150.40;;;;;;5094616;28;20024;-65
2022/02/07 06:13:02;;;;;;;12.90;7.13;;;230.60;2150.40;;;;;;5096322;28;20012;-62
2022/02/07 06:15:28;;;;;;;11.02;6.50;;;230.60;2150.40;;;;;;5095824;28;20031;-65
2022/02/07 06:17:57;;;;;;;13.70;6.70;;;230.60;2150.40;;;;;;5095742;28;20020;-61
2022/02/07 06:20:24;;;;;;;11.65;6.20;;;230.60;2176.00;;;;;;5095744;28;20020;-66
2022/02/07 06:22:50;;;;;;;12.15;6.28;;;230.50;2201.60;;;;;;5095776;28;20043;-64
2022/02/07 06:25:16;;;;;;;9.68;5.20;;;230.50;2227.20;;;;;;5095736;28;20024;-66
2022/02/07 06:27:43;;;;;;;11.98;5.18;;;230.50;2252.80;;;;;;5096117;28;20028;-65
2022/02/07 06:30:12;;;;;;;12.68;6.18;;;230.50;2252.80;;;;;;5095322;28;20017;-68
2022/02/07 06:32:39;;;;;;;9.30;4.82;;;230.60;2252.80;;;;;;5095218;28;20028;-61
2022/02/07 06:35:06;;;;;;;8.40;4.38;;;230.80;2252.80;;;;;;5095474;28;20024;-67
2022/02/07 06:37:32;;;;;;;7.18;3.83;;;230.80;2252.80;;;;;;5095352;28;20029;-66
2022/02/07 06:39:58;;;;;;;8.50;3.92;;;230.70;2252.80;;;;;;5095359;28;20036;-61
2022/02/07 06:42:24;;;;;;;8.98;3.90;;;230.60;2252.80;;;;;;5095441;28;20040;-61
2022/02/07 06:44:50;;;;;;;9.32;4.20;;;230.50;2252.80;;;;;;5095157;28;20028;-61
2022/02/07 06:47:16;;;;;;;9.18;5.45;;;230.40;2252.80;;;;;;5094769;28;20026;-61
2022/02/07 06:49:42;;;;;;;11.13;6.60;;;205.70;2252.80;;;;;;5095261;28;20024;-61
2022/02/07 06:52:08;;;;;;;12.13;6.15;;;205.70;2252.80;;;;;;5095005;28;20030;-61
2022/02/07 06:54:35;;;;;;;13.60;7.63;;;230.40;2252.80;;;;;;5095043;28;20035;-61
2022/02/07 06:57:01;;;;;;;14.98;8.07;;;230.40;2252.80;;;;;;5095015;28;20460;-62
2022/02/07 06:59:31;;;;;;;21.55;10.35;;;230.40;2252.80;;;;;;5094753;28;20181;-66
2022/02/07 07:01:57;;;;;;;20.88;11.18;;;230.50;2252.80;;;;;;5094937;28;20028;-67
2022/02/07 07:04:23;;;;;;;23.52;12.70;;;230.50;2252.80;;;;;;5094655;28;20016;-68
2022/02/07 07:06:49;;;;;;;25.35;12.52;;;230.50;2252.80;;;;;;5094786;28;20031;-66
2022/02/07 07:09:15;;;;;;;21.23;10.38;;;230.50;2252.80;;;;;;5094785;28;20016;-65
2022/02/07 07:11:42;;;;;;;12.18;7.57;;;230.50;2252.80;;;;;;5094714;28;20031;-62
2022/02/07 07:14:51;;;;;;;10.57;6.38;;;230.40;2252.80;;;;;;5094617;28;20034;-60
2022/02/07 07:16:58;;;;;;;12.35;6.03;;;230.40;2252.80;;;;;;5086208;28;20027;-61
2022/02/07 07:19:26;;;;;;;11.95;7.35;;;230.40;2252.80;;;;;;5094588;28;20027;-61
2022/02/07 07:21:53;;;;;;;20.00;11.15;;;230.40;2252.80;;;;;;5094475;28;20127;-67
2022/02/07 07:24:19;;;;;;;22.55;11.32;;;230.40;2252.80;;;;;;5094515;28;20051;-67
2022/02/07 07:26:45;;;;;;;24.67;12.05;;;230.40;2252.80;;;;;;5094394;28;20028;-68
2022/02/07 07:29:17;;;;;;;15.65;9.23;;;230.40;2252.80;;;;;;5093943;28;20070;-62
2022/02/07 07:31:48;;;;;;;19.20;10.48;;;230.50;2252.80;;;;;;5094943;28;20031;-61
2022/02/07 07:34:16;;;;;;;23.15;10.80;;;230.60;2252.80;;;;;;5094619;28;20016;-66
2022/02/07 07:36:43;;;;;;;25.35;12.48;;;230.50;2252.80;;;;;;5093089;28;20111;-61
2022/02/07 07:39:12;;;;;;;17.35;9.23;;;230.50;2252.80;;;;;;5094305;28;20537;-66
2022/02/07 07:41:40;;;;;;;18.25;10.50;;;230.40;2252.80;;;;;;5094122;28;20088;-61
2022/02/07 07:44:06;;;;;;;19.20;11.43;;;230.40;2252.80;;;;;;5094357;28;20055;-66
2022/02/07 07:46:32;;;;;;;28.58;15.82;;;230.40;2252.80;;;;;;5094134;28;20027;-60
2022/02/07 07:49:06;;;;;;;40.22;20.08;;;230.40;2252.80;;;;;;5093784;28;20030;-66
2022/02/07 07:51:45;;;;;;;35.47;20.00;;;230.40;2252.80;;;;;;5094047;28;20039;-66
2022/02/07 07:54:21;;;;;;;26.33;16.27;;;230.50;2252.80;;;;;;5093697;28;20048;-61
2022/02/07 08:02:18;;;;;;;26.67;14.93;;;230.60;2252.80;;;;;;5093942;28;20449;-61
2022/02/07 08:04:46;;;;;;;24.10;14.23;;;230.50;2252.80;;;;;;5092282;28;20073;-69
2022/02/07 08:07:22;;;;;;;20.30;11.55;;;230.50;2252.80;;;;;;5093366;28;20024;-67
2022/02/07 08:12:26;;;;;;;17.95;10.80;;;230.50;2252.80;;;;;;5090824;28;20051;-68
2022/02/07 08:14:52;;;;;;;31.08;13.90;;;230.50;2252.80;;;;;;5093180;28;20072;-66
2022/02/07 08:17:21;;;;;;;21.33;10.93;;;230.60;2252.80;;;;;;5093193;28;20118;-68
2022/02/07 08:19:48;;;;;;;44.33;21.08;;;230.50;2252.80;;;;;;5090797;28;20016;-69
2022/02/07 08:22:14;;;;;;;39.03;21.15;;;230.60;2252.80;;;;;;5093238;28;20051;-62
2022/02/07 08:24:40;;;;;;;48.00;29.42;;;230.60;2252.80;;;;;;5093230;28;20538;-62
2022/02/07 08:27:07;;;;;;;86.57;58.70;;;230.60;2252.80;;;;;;5092962;28;20020;-64
2022/02/07 08:29:33;;;;;;;88.38;32.22;;;230.60;2252.80;;;;;;5093178;28;20028;-64
2022/02/07 08:31:58;;;;;;;27.40;17.73;;;230.60;2252.80;;;;;;5092884;28;20711;-61
2022/02/07 08:34:24;;;;;;;22.33;13.13;;;230.60;2252.80;;;;;;5090277;28;20024;-65
2022/02/07 08:36:52;;;;;;;22.95;11.95;;;230.60;2252.80;;;;;;5090736;28;20028;-67
2022/02/07 08:39:18;;;;;;;20.75;12.07;;;230.50;2252.80;;;;;;5092427;28;20527;-67
2022/02/07 08:41:44;;;;;;;24.25;12.90;;;230.40;2252.80;;;;;;5092212;28;20039;-66
2022/02/07 08:44:10;;;;;;;18.95;10.63;;;205.70;2252.80;;;;;;5092947;28;20115;-66
2022/02/07 08:46:36;;;;;;;15.18;7.07;;;205.70;2252.80;;;;;;5091935;28;20113;-66
2022/02/07 08:49:03;;;;;;;24.85;8.02;;;205.60;2252.80;;;;;;5092379;28;20056;-66
2022/02/07 08:51:31;;;;;;;23.80;11.13;;;205.40;2252.80;;;;;;5091881;28;20093;-63
2022/02/07 08:54:01;;;;;;;41.58;13.60;;;205.20;2252.80;;;;;;5092545;28;20016;-68
2022/02/07 08:56:38;;;;;;;31.13;16.70;;;205.00;2252.80;;;;;;5092663;28;20090;-67
2022/02/07 08:59:04;;;;;;;20.70;14.90;;;204.80;2252.80;;;;;;5091641;28;20050;-69
2022/02/07 09:01:42;;;;;;;28.38;15.73;;;204.90;2252.80;;;;;;5091842;28;20115;-69
2022/02/07 09:07:46;;;;;;;21.58;12.07;;;204.80;2252.80;;;;;;5092205;28;20042;-69
2022/02/07 09:09:43;;;;;;;35.33;20.88;;;204.80;2252.80;;;;;;5077768;28;20036;-69
2022/02/07 09:12:09;;;;;;;25.65;14.48;;;204.80;2252.80;;;;;;5095303;28;20103;-69
2022/02/07 09:14:43;;;;;;;39.38;20.98;;;204.80;2252.80;;;;;;5095790;28;20020;-68
2022/02/07 09:17:09;;;;;;;27.88;13.40;;;204.90;2252.80;;;;;;5095835;28;20031;-69
2022/02/07 09:19:36;;;;;;;16.00;8.45;;;205.00;2252.80;;;;;;5093347;28;20028;-68
2022/02/07 09:22:04;;;;;;;40.03;20.63;;;205.20;2252.80;;;;;;5095943;28;20028;-68
2022/02/07 09:24:30;;;;;;;37.78;18.45;;;205.20;2252.80;;;;;;5094557;28;20025;-69
2022/02/07 09:26:56;;;;;;;23.10;12.55;;;205.30;2252.80;;;;;;5095853;28;20023;-69
2022/02/07 09:29:22;;;;;;;18.60;10.65;;;205.30;2252.80;;;;;;5095633;28;20480;-69
2022/02/07 09:31:48;;;;;;;13.70;8.20;;;205.40;2252.80;;;;;;5095842;28;20023;-69
2022/02/07 09:34:14;;;;;;;12.77;5.75;;;205.40;2252.80;;;;;;5095820;28;20028;-68
2022/02/07 09:36:40;;;;;;;12.73;5.10;;;205.30;2252.80;;;;;;5095604;28;20032;-68
2022/02/07 09:39:06;;;;;;;9.88;5.75;;;205.30;2252.80;;;;;;5092791;28;20016;-68
2022/02/07 09:41:34;;;;;;;22.75;10.77;;;205.20;2252.80;;;;;;5095974;28;20111;-69
2022/02/07 09:44:02;;;;;;;24.17;15.93;;;205.20;2252.80;;;;;;5094720;28;20051;-69
2022/02/07 09:46:44;;;;;;;21.95;17.27;;;205.10;2252.80;;;;;;5096136;28;20380;-68
2022/02/07 09:49:13;;;;;;;14.45;9.48;;;205.10;2252.80;;;;;;5095840;28;20032;-68
2022/02/07 09:51:42;;;;;;;172.70;145.48;;;205.10;2252.80;;;;;;5095940;28;20017;-68
2022/02/07 09:54:08;;;;;;;41.17;37.17;;;205.10;2252.80;;;;;;5095874;28;20030;-68
2022/02/07 09:56:34;;;;;;;6.43;5.80;;;205.10;2252.80;;;;;;5095708;28;20024;-69
2022/02/07 09:59:00;;;;;;;6.72;5.45;;;205.10;2252.80;;;;;;5094411;28;20096;-69
2022/02/07 10:01:29;;;;;;;5.75;4.03;;;205.10;2252.80;;;;;;5095035;28;20472;-68
2022/02/07 10:04:06;;;;;;;10.48;5.30;;;205.20;2252.80;;;;;;5095195;28;20024;-69
2022/02/07 10:09:40;;;;;;;34.63;23.17;;;205.30;2252.80;;;;;;5095664;28;20131;-69
2022/02/07 10:34:44;;;;;;;187.80;70.60;;;205.60;2252.80;;;;;;5095234;28;19910;-67
2022/02/07 10:39:55;;;;;;;92.32;36.75;;;205.70;2252.80;;;;;;5032867;28;20049;-67
2022/02/07 10:44:58;;;;;;;77.60;35.70;;;205.60;2252.80;;;;;;5032826;28;20450;-67
2022/02/07 10:47:35;;;;;;;97.45;48.30;;;205.60;2252.80;;;;;;5032446;28;20063;-67
2022/02/07 10:50:06;;;;;;;21.73;12.77;;;205.60;2252.80;;;;;;5032782;28;20018;-68
2022/02/07 10:52:54;;;;;;;14.05;8.35;;;205.60;2252.80;;;;;;5032875;28;20129;-67
2022/02/07 10:55:23;;;;;;;7.25;3.53;;;205.60;2252.80;;;;;;5032354;28;20477;-67
2022/02/07 10:57:51;;;;;;;6.22;2.85;;;205.60;2252.80;;;;;;5032517;28;20021;-67
2022/02/07 11:00:21;;;;;;;6.85;4.72;;;205.50;2252.80;;;;;;5032130;28;20068;-68
2022/02/07 11:03:03;;;;;;;7.93;5.82;;;205.60;2252.80;;;;;;5032358;28;20068;-68
2022/02/07 11:05:40;;;;;;;7.10;4.30;;;205.60;2252.80;;;;;;5032214;28;20402;-67
2022/02/07 11:08:27;;;;;;;6.53;3.45;;;205.60;2252.80;;;;;;5032352;28;20025;-72
2022/02/07 11:11:10;;;;;;;7.50;4.97;;;205.50;2252.80;;;;;;5032297;28;20028;-66
2022/02/07 11:13:50;;;;;;;4.05;2.67;;;205.40;2252.80;;;;;;5094822;28;20384;-66
2022/02/07 11:19:13;;;;;;;4.50;3.13;;;205.40;2252.80;;;;;;5094847;28;20467;-73
2022/02/07 11:27:32;;;;;;;3.55;1.67;;;205.70;2252.80;;;;;;5094191;28;20028;-67
2022/02/07 11:29:59;;;;;;;2.72;1.30;;;230.40;2252.80;;;;;;5093907;28;20377;-67
2022/02/07 11:32:40;;;;;;;2.97;1.52;;;230.40;2252.80;;;;;;5093989;28;20028;-67
2022/02/07 11:35:18;;;;;;;4.00;1.40;;;230.50;2252.80;;;;;;5092460;28;20038;-68
2022/02/07 11:37:51;;;;;;;3.70;2.03;;;230.50;2252.80;;;;;;5094270;28;20435;-68
2022/02/07 11:40:31;;;;;;;4.03;1.83;;;230.40;2252.80;;;;;;5093900;28;20039;-68
2022/02/07 11:43:17;;;;;;;2.58;1.05;;;230.40;2252.80;;;;;;5093680;28;20043;-70
2022/02/07 11:45:56;;;;;;;2.90;1.35;;;205.70;2252.80;;;;;;5093819;28;20598;-68
2022/02/07 11:48:25;;;;;;;4.43;1.40;;;205.70;2252.80;;;;;;5093839;28;21581;-69
2022/02/07 11:50:57;;;;;;;2.72;1.10;;;230.50;2252.80;;;;;;5100088;28;20024;-67
2022/02/07 11:53:31;;;;;;;1.98;1.10;;;205.60;2252.80;;;;;;5112067;28;20436;-68
2022/02/07 11:56:09;;;;;;;2.55;1.42;;;205.60;2252.80;;;;;;5113859;28;20019;-67
2022/02/07 11:59:01;;;;;;;4.30;1.80;;;205.60;2252.80;;;;;;5092798;28;20478;-68
2022/02/07 12:01:48;;;;;;;2.97;1.10;;;205.50;2252.80;;;;;;5091926;28;20043;-67
2022/02/07 12:04:41;;;;;;;5.63;1.90;;;205.50;2252.80;;;;;;5093993;28;20048;-68
2022/02/07 12:07:26;;;;;;;6.07;3.13;;;205.50;2252.80;;;;;;5095654;28;20059;-68
2022/02/07 12:10:43;;;;;;;45.50;23.33;;;205.30;2252.80;;;;;;5092711;28;20499;-68
2022/02/07 12:12:49;;;;;;;12.98;5.30;;;205.30;2252.80;;;;;;5090547;28;20030;-68
2022/02/07 12:15:26;;;;;;;4.95;1.83;;;205.40;2252.80;;;;;;5090490;28;20035;-67
2022/02/07 12:17:57;;;;;;;5.95;2.88;;;205.30;2252.80;;;;;;5092375;28;20024;-67
2022/02/07 12:20:29;;;;;;;6.35;2.55;;;205.20;2252.80;;;;;;5092296;28;20043;-67
2022/02/07 12:22:58;;;;;;;5.53;2.42;;;205.30;2252.80;;;;;;5092321;28;20381;-67
2022/02/07 12:25:46;;;;;;;3.53;1.88;;;205.10;2252.80;;;;;;5092240;28;20023;-68
2022/02/07 12:28:28;;;;;;;4.43;1.70;;;205.10;2252.80;;;;;;5091688;28;20375;-67
2022/02/07 12:33:40;;;;;;;10.52;4.97;;;204.90;2252.80;;;;;;5090074;28;20023;-67
2022/02/07 12:36:07;;;;;;;13.65;7.72;;;204.90;2252.80;;;;;;5092037;28;20020;-67
2022/02/07 12:38:36;;;;;;;6.88;3.72;;;204.90;2252.80;;;;;;5092063;28;20615;-68
2022/02/07 12:41:06;;;;;;;10.75;4.15;;;204.90;2252.80;;;;;;5090835;28;20027;-67
2022/02/07 12:43:35;;;;;;;7.00;2.83;;;205.00;2252.80;;;;;;5090476;28;20028;-67
2022/02/07 12:46:06;;;;;;;11.27;4.65;;;204.90;2252.80;;;;;;5094593;28;20028;-67
2022/02/07 12:48:36;;;;;;;7.55;3.97;;;204.90;2252.80;;;;;;5096888;28;20559;-68
2022/02/07 12:51:03;;;;;;;16.70;6.38;;;204.80;2252.80;;;;;;5095817;28;20157;-67
2022/02/07 12:53:30;;;;;;;15.23;8.43;;;204.80;2252.80;;;;;;5094158;28;20028;-67
2022/02/07 12:56:04;;;;;;;7.93;3.80;;;204.80;2252.80;;;;;;5094487;28;20046;-67
2022/02/07 12:58:40;;;;;;;9.93;5.30;;;204.80;2252.80;;;;;;5097259;28;20043;-69
2022/02/07 13:01:21;;;;;;;14.15;6.25;;;204.90;2252.80;;;;;;5056403;28;20044;-69
2022/02/07 13:04:14;;;;;;;9.48;3.58;;;204.80;2252.80;;;;;;5056860;28;20044;-68
2022/02/07 13:06:47;;;;;;;5.43;2.80;;;204.80;2252.80;;;;;;5055542;28;20017;-70
2022/02/07 13:09:29;;;;;;;7.57;2.85;;;180.10;2252.80;;;;;;5056634;28;20157;-68
2022/02/07 13:12:04;;;;;;;9.00;2.47;;;180.10;2252.80;;;;;;5047666;28;20082;-68
2022/02/07 13:14:36;;;;;;;12.75;3.50;;;180.10;2252.80;;;;;;5064895;28;20107;-65
2022/02/07 13:17:02;;;;;;;11.80;2.95;;;180.10;2252.80;;;;;;5060822;28;20650;-67
2022/02/07 13:19:38;;;;;;;11.88;5.03;;;180.00;2252.80;;;;;;5065576;28;20028;-65
2022/02/07 13:22:06;;;;;;;6.65;3.03;;;180.10;2252.80;;;;;;5055466;28;20037;-67
2022/02/07 13:24:34;;;;;;;4.85;2.05;;;180.10;2252.80;;;;;;5056106;28;20021;-67
2022/02/07 13:27:02;;;;;;;7.93;2.85;;;180.10;2252.80;;;;;;5054779;28;20110;-67
2022/02/07 13:29:33;;;;;;;10.80;4.30;;;180.10;2252.80;;;;;;5063839;28;20032;-68
2022/02/07 13:32:05;;;;;;;5.95;3.05;;;180.10;2252.80;;;;;;5074616;28;20020;-69
2022/02/07 13:34:33;;;;;;;10.50;3.30;;;180.10;2252.80;;;;;;5074596;28;20607;-68
2022/02/07 13:37:17;;;;;;;4.68;2.28;;;180.10;2252.80;;;;;;5074359;28;20021;-66
2022/02/07 13:39:55;;;;;;;6.43;3.17;;;180.10;2252.80;;;;;;5074505;28;20024;-66
2022/02/07 13:42:26;;;;;;;8.85;5.35;;;180.00;2252.80;;;;;;5074481;28;20040;-64
2022/02/07 13:45:00;;;;;;;13.07;5.95;;;180.00;2227.20;;;;;;5074540;28;20073;-65
2022/02/07 13:47:27;;;;;;;14.43;6.82;;;179.90;2252.80;;;;;;5074261;28;20020;-67
2022/02/07 13:49:56;;;;;;;8.98;4.93;;;179.90;2227.20;;;;;;5074159;28;20579;-67
2022/02/07 13:52:22;;;;;;;13.00;5.40;;;179.90;2252.80;;;;;;5074372;28;20534;-66
2022/02/07 13:54:48;;;;;;;10.00;4.78;;;179.90;2252.80;;;;;;5074219;28;20023;-66
2022/02/07 13:57:14;;;;;;;19.92;11.52;;;179.90;2252.80;;;;;;5072689;28;20029;-67
2022/02/07 13:59:41;;;;;;;21.58;12.25;;;179.90;2252.80;;;;;;5092240;28;20120;-65
2022/02/07 14:02:26;;;;;;;30.20;16.27;;;179.90;2252.80;;;;;;5114157;28;20032;-68
2022/02/07 14:04:53;;;;;;;15.40;8.07;;;179.90;2227.20;;;;;;5114581;28;20111;-68
2022/02/07 14:07:20;;;;;;;79.90;36.63;;;179.90;2252.80;;;;;;5096901;27;20020;-69
2022/02/07 14:09:45;;;;;;;304.63;128.43;;;179.90;2252.80;;;;;;5093133;28;20016;-69
2022/02/07 14:12:13;;;;;;;174.45;70.60;;;179.90;2252.80;;;;;;5093620;28;20035;-68
2022/02/07 14:14:40;;;;;;;141.35;64.45;;;179.90;2252.80;;;;;;5094505;28;20482;-68
2022/02/07 14:17:06;;;;;;;135.77;68.50;;;180.00;2252.80;;;;;;5095002;28;20125;-68
2022/02/07 14:19:41;;;;;;;63.80;29.75;;;179.90;2252.80;;;;;;5093546;28;20048;-68
2022/02/07 14:22:09;;;;;;;53.17;29.58;;;179.90;2252.80;;;;;;5094800;28;20040;-68
2022/02/07 14:24:36;;;;;;;24.80;14.32;;;179.90;2252.80;;;;;;5094731;28;20020;-68
2022/02/07 14:27:03;;;;;;;16.67;8.32;;;179.90;2252.80;;;;;;5094689;28;20020;-68
2022/02/07 14:29:28;;;;;;;14.45;6.43;;;180.00;2252.80;;;;;;5094739;28;20023;-68
2022/02/07 14:31:54;;;;;;;12.90;6.45;;;180.00;2252.80;;;;;;5094666;28;20020;-67
2022/02/07 14:34:20;;;;;;;21.27;9.35;;;180.00;2252.80;;;;;;5094760;28;20032;-65
2022/02/07 14:36:46;;;;;;;9.82;5.10;;;180.10;2252.80;;;;;;5094520;28;20032;-66
2022/02/07 14:39:12;;;;;;;8.32;3.63;;;180.00;2227.20;;;;;;5094661;28;20103;-66
2022/02/07 14:41:38;;;;;;;8.77;3.08;;;180.00;2252.80;;;;;;5094333;28;20111;-69
2022/02/07 14:44:04;;;;;;;6.32;1.90;;;180.00;2252.80;;;;;;5094566;28;20016;-68